createdAt,value
2018-11-20T00:01:50.256Z,102520.50
2018-11-20T00:04:36.423Z,102518.27
2018-11-20T00:07:22.898Z,102511.00
2018-11-20T00:10:00.709Z,102503.41
2018-11-20T00:12:46.841Z,102510.89
2018-11-20T00:15:37.202Z,102512.19
2018-11-20T00:18:22.499Z,102507.13
2018-11-20T00:21:18.613Z,102505.05
2018-11-20T00:24:05.672Z,102501.14
2018-11-20T00:27:01.680Z,102504.92
2018-11-20T00:29:48.597Z,102504.03
2018-11-20T00:32:34.174Z,102491.73
2018-11-20T00:35:24.994Z,102493.91
2018-11-20T00:38:08.238Z,102489.91
2018-11-20T00:40:59.753Z,102482.20
2018-11-20T00:43:59.599Z,102483.73
2018-11-20T00:46:59.320Z,102481.09
2018-11-20T00:49:55.884Z,102475.62
2018-11-20T00:52:54.519Z,102472.84
2018-11-20T00:56:23.840Z,102478.55
2018-11-20T00:59:14.635Z,102471.47
2018-11-20T01:02:00.682Z,102477.53
2018-11-20T01:04:46.942Z,102474.78
2018-11-20T01:07:34.476Z,102457.10
2018-11-20T01:10:20.739Z,102464.84
2018-11-20T01:13:10.315Z,102468.95
2018-11-20T01:16:07.498Z,102461.15
2018-11-20T01:18:53.111Z,102459.06
2018-11-20T01:21:39.332Z,102452.95
2018-11-20T01:24:26.801Z,102443.27
2018-11-20T01:27:13.033Z,102447.70
2018-11-20T01:30:00.206Z,102442.36
2018-11-20T01:32:59.478Z,102439.06
2018-11-20T01:35:58.269Z,102431.59
2018-11-20T01:39:04.172Z,102426.52
2018-11-20T01:41:49.997Z,102419.56
2018-11-20T01:44:35.635Z,102422.73
2018-11-20T01:47:23.155Z,102405.15
2018-11-20T01:50:08.952Z,102408.63
2018-11-20T01:52:55.241Z,102409.95
2018-11-20T01:56:02.478Z,102411.38
2018-11-20T01:58:43.902Z,102408.23
2018-11-20T02:01:30.358Z,102400.56
2018-11-20T02:04:17.963Z,102396.30
2018-11-20T02:07:05.871Z,102395.33
2018-11-20T02:10:00.195Z,102401.95
2018-11-20T02:12:45.859Z,102394.22
2018-11-20T02:15:31.595Z,102388.90
2018-11-20T02:18:24.047Z,102380.80
2018-11-20T02:21:10.141Z,102386.56
2018-11-20T02:23:56.381Z,102382.40
2018-11-20T02:26:47.675Z,102376.17
2018-11-20T02:29:33.261Z,102369.34
2018-11-20T02:32:18.851Z,102381.43
2018-11-20T02:35:20.926Z,102368.44
2018-11-20T02:38:07.257Z,102373.05
2018-11-20T02:40:43.579Z,102373.24
2018-11-20T02:43:29.189Z,102360.07
2018-11-20T02:46:15.931Z,102370.92
2018-11-20T02:48:55.839Z,102370.70
2018-11-20T02:51:57.905Z,102367.73
2018-11-20T02:54:44.357Z,102373.00
2018-11-20T02:57:32.017Z,102362.30
2018-11-20T03:00:19.536Z,102363.24
2018-11-20T03:03:06.079Z,102360.16
2018-11-20T03:05:59.333Z,102353.66
2018-11-20T03:08:37.030Z,102359.04
2018-11-20T03:11:22.855Z,102361.30
2018-11-20T03:14:25.479Z,102347.08
2018-11-20T03:17:03.824Z,102345.66
2018-11-20T03:20:06.886Z,102346.71
2018-11-20T03:22:46.047Z,102331.64
2018-11-20T03:26:07.042Z,102345.28
2018-11-20T03:28:57.107Z,102326.72
2018-11-20T03:31:50.359Z,102325.41
2018-11-20T03:34:34.515Z,102334.02
2018-11-20T03:37:24.592Z,102334.50
2018-11-20T03:40:27.263Z,102341.59
2018-11-20T03:43:03.399Z,102329.09
2018-11-20T03:45:59.700Z,102340.33
2018-11-20T03:48:46.327Z,102332.63
2018-11-20T03:51:28.407Z,102332.05
2018-11-20T03:54:16.548Z,102325.55
2018-11-20T03:57:13.863Z,102318.87
2018-11-20T04:00:13.280Z,102322.75
2018-11-20T04:03:01.049Z,102310.55
2018-11-20T04:05:47.113Z,102292.70
2018-11-20T04:08:41.105Z,102302.36
2018-11-20T04:11:28.586Z,102293.48
2018-11-20T04:14:14.585Z,102297.50
2018-11-20T04:17:10.863Z,102291.73
2018-11-20T04:19:48.722Z,102290.16
2018-11-20T04:22:51.497Z,102285.36
2018-11-20T04:25:44.171Z,102279.73
2018-11-20T04:28:32.762Z,102280.64
2018-11-20T04:31:55.876Z,102271.86
2018-11-20T04:34:37.017Z,102272.53
2018-11-20T04:37:27.300Z,102272.83
2018-11-20T04:40:14.873Z,102272.56
2018-11-20T04:43:03.777Z,102262.47
2018-11-20T04:45:39.501Z,102267.19
2018-11-20T04:48:15.504Z,102261.84
2018-11-20T04:50:56.531Z,102255.64
2018-11-20T04:53:55.975Z,102253.81
2018-11-20T04:56:53.230Z,102264.38
2018-11-20T04:59:37.798Z,102259.41
2018-11-20T05:02:23.950Z,102257.17
2018-11-20T05:05:16.731Z,102255.62
2018-11-20T05:08:02.778Z,102249.88
2018-11-20T05:10:45.114Z,102245.25
2018-11-20T05:13:31.488Z,102251.86
2018-11-20T05:16:17.655Z,102247.44
2018-11-20T05:19:13.144Z,102245.52
2018-11-20T05:21:56.159Z,102251.17
2018-11-20T05:24:52.674Z,102247.53
2018-11-20T05:27:38.776Z,102246.08
2018-11-20T05:30:29.529Z,102252.12
2018-11-20T05:33:24.012Z,102247.44
2018-11-20T05:36:10.100Z,102247.44
2018-11-20T05:38:57.614Z,102237.63
2018-11-20T05:41:56.853Z,102242.02
2018-11-20T05:44:46.329Z,102243.24
2018-11-20T05:47:33.152Z,102247.44
2018-11-20T05:50:19.379Z,102248.22
2018-11-20T05:53:12.860Z,102251.98
2018-11-20T05:55:58.720Z,102243.77
2018-11-20T05:58:44.831Z,102253.52
2018-11-20T06:01:31.476Z,102256.14
2018-11-20T06:04:17.620Z,102253.89
2018-11-20T06:07:03.842Z,102252.36
2018-11-20T06:09:50.053Z,102257.54
2018-11-20T06:12:46.540Z,102251.41
2018-11-20T06:15:40.047Z,102254.77
2018-11-20T06:18:27.646Z,102266.89
2018-11-20T06:21:09.839Z,102263.73
2018-11-20T06:24:03.081Z,102267.77
2018-11-20T06:26:48.509Z,102267.61
2018-11-20T06:29:48.117Z,102267.77
2018-11-20T06:32:26.944Z,102256.48
2018-11-20T06:35:20.428Z,102270.31
2018-11-20T06:37:58.228Z,102268.49
2018-11-20T06:40:51.871Z,102268.95
2018-11-20T06:43:51.368Z,102278.44
2018-11-20T06:46:38.580Z,102271.06
2018-11-20T06:49:26.072Z,102274.27
2018-11-20T06:52:13.628Z,102283.07
2018-11-20T06:55:03.608Z,102276.19
2018-11-20T06:57:41.575Z,102279.98
2018-11-20T07:00:37.947Z,102281.78
2018-11-20T07:03:19.299Z,102293.16
2018-11-20T07:06:09.959Z,102279.31
2018-11-20T07:08:56.132Z,102278.47
2018-11-20T07:11:42.197Z,102276.12
2018-11-20T07:14:32.431Z,102287.47
2018-11-20T07:17:23.433Z,102285.06
2018-11-20T07:20:17.700Z,102291.01
2018-11-20T07:23:03.672Z,102283.47
2018-11-20T07:25:49.775Z,102298.37
2018-11-20T07:28:42.663Z,102291.88
2018-11-20T07:31:39.082Z,102281.46
2018-11-20T07:34:35.593Z,102283.33
2018-11-20T07:37:22.267Z,102280.53
2018-11-20T07:40:24.063Z,102278.16
2018-11-20T07:43:14.399Z,102285.45
2018-11-20T07:46:00.696Z,102296.62
2018-11-20T07:48:54.001Z,102283.88
2018-11-20T07:51:54.016Z,102286.59
2018-11-20T07:54:41.494Z,102277.59
2018-11-20T07:57:32.227Z,102278.80
2018-11-20T08:00:24.998Z,102272.64
2018-11-20T08:03:11.355Z,102270.44
2018-11-20T08:06:14.441Z,102266.80
2018-11-20T08:09:13.828Z,102256.89
2018-11-20T08:12:10.661Z,102252.69
2018-11-20T08:14:58.457Z,102263.98
2018-11-20T08:17:46.064Z,102260.23
2018-11-20T08:20:36.004Z,102256.02
2018-11-20T08:23:21.931Z,102261.64
2018-11-20T08:25:59.832Z,102250.14
2018-11-20T08:28:52.994Z,102252.31
2018-11-20T08:31:40.552Z,102250.14
2018-11-20T08:34:25.123Z,102252.12
2018-11-20T08:37:02.130Z,102243.57
2018-11-20T08:39:48.172Z,102255.95
2018-11-20T08:42:43.437Z,102254.10
2018-11-20T08:45:36.356Z,102250.10
2018-11-20T08:48:41.739Z,102237.53
2018-11-20T08:51:37.947Z,102249.84
2018-11-20T08:54:35.032Z,102244.73
2018-11-20T08:57:22.231Z,102239.17
2018-11-20T09:00:08.408Z,102226.02
2018-11-20T09:02:47.832Z,102232.31
2018-11-20T09:05:25.654Z,102227.37
2018-11-20T09:08:31.756Z,102231.83
2018-11-20T09:11:28.591Z,102233.36
2018-11-20T09:14:14.546Z,102229.34
2018-11-20T09:17:01.043Z,102221.48
2018-11-20T09:20:06.705Z,102222.42
2018-11-20T09:22:53.502Z,102221.38
2018-11-20T09:25:29.145Z,102205.08
2018-11-20T09:28:17.268Z,102211.08
2018-11-20T09:31:07.817Z,102211.45
2018-11-20T09:34:07.092Z,102200.58
2018-11-20T09:36:57.364Z,102208.50
2018-11-20T09:40:01.413Z,102196.70
2018-11-20T09:42:38.792Z,102200.86
2018-11-20T09:45:42.807Z,102188.55
2018-11-20T09:48:47.645Z,102192.11
2018-11-20T09:51:46.967Z,102193.34
2018-11-20T09:54:41.014Z,102183.57
2018-11-20T09:57:25.289Z,102186.02
2018-11-20T10:00:18.780Z,102183.47
2018-11-20T10:03:06.035Z,102187.00
2018-11-20T10:06:05.752Z,102176.92
2018-11-20T10:08:53.064Z,102174.62
2018-11-20T10:11:40.183Z,102173.64
2018-11-20T10:14:27.421Z,102173.75
2018-11-20T10:17:13.189Z,102173.22
2018-11-20T10:20:00.392Z,102154.73
2018-11-20T10:22:50.782Z,102145.31
2018-11-20T10:25:50.613Z,102142.12
2018-11-20T10:28:40.840Z,102135.55
2018-11-20T10:31:26.769Z,102126.06
2018-11-20T10:34:15.065Z,102121.64
2018-11-20T10:36:57.857Z,102115.66
2018-11-20T10:39:43.963Z,102110.45
2018-11-20T10:42:31.466Z,102098.95
2018-11-20T10:45:25.012Z,102093.11
2018-11-20T10:48:08.597Z,102092.80
2018-11-20T10:50:54.774Z,102096.23
2018-11-20T10:53:41.806Z,102105.86
2018-11-20T10:56:29.516Z,102101.05
2018-11-20T10:59:15.718Z,102097.17
2018-11-20T11:02:18.327Z,102091.56
2018-11-20T11:05:04.868Z,102092.42
2018-11-20T11:07:51.600Z,102065.69
2018-11-20T11:10:45.831Z,102061.47
2018-11-20T11:13:48.251Z,102060.22
2018-11-20T11:16:41.930Z,102053.87
2018-11-20T11:19:27.943Z,102055.86
2018-11-20T11:22:06.133Z,102050.46
2018-11-20T11:24:55.982Z,102045.91
2018-11-20T11:27:42.260Z,102039.83
2018-11-20T11:30:28.297Z,102043.19
2018-11-20T11:33:26.810Z,102036.05
2018-11-20T11:36:09.591Z,102036.95
2018-11-20T11:39:09.442Z,102028.46
2018-11-20T11:41:49.301Z,102034.15
2018-11-20T11:44:42.351Z,102034.89
2018-11-20T11:47:30.407Z,102030.83
2018-11-20T11:50:26.829Z,102024.70
2018-11-20T11:53:12.541Z,102015.71
2018-11-20T11:56:18.241Z,102005.09
2018-11-20T11:59:09.203Z,102000.05
2018-11-20T12:04:35.049Z,101998.83
2018-11-20T12:07:25.521Z,102008.53
2018-11-20T12:10:11.616Z,101996.11
2018-11-20T12:12:58.808Z,102001.97
2018-11-20T12:15:49.581Z,101995.19
2018-11-20T12:18:42.827Z,101995.08
2018-11-20T12:21:20.580Z,101983.00
2018-11-20T12:24:06.272Z,101981.68
2018-11-20T12:26:53.837Z,101982.59
2018-11-20T12:29:46.911Z,101975.59
2018-11-20T12:32:47.142Z,101976.96
2018-11-20T12:35:33.423Z,101972.75
2018-11-20T12:38:08.025Z,101971.41
2018-11-20T12:40:45.524Z,101972.98
2018-11-20T12:43:38.023Z,101980.98
2018-11-20T12:46:38.865Z,101982.36
2018-11-20T12:49:26.209Z,101967.30
2018-11-20T12:52:23.998Z,101966.63
2018-11-20T12:55:08.300Z,101965.61
2018-11-20T12:57:59.154Z,101965.20
2018-11-20T13:00:39.558Z,101957.55
2018-11-20T13:03:41.958Z,101963.59
2018-11-20T13:06:28.760Z,101969.09
2018-11-20T13:09:17.839Z,101964.23
2018-11-20T13:12:11.410Z,101963.01
2018-11-20T13:14:57.812Z,101954.61
2018-11-20T13:17:52.211Z,101965.91
2018-11-20T13:20:50.607Z,101963.52
2018-11-20T13:23:42.653Z,101956.75
2018-11-20T13:26:21.469Z,101953.63
2018-11-20T13:29:05.974Z,101945.30
2018-11-20T13:31:52.462Z,101935.66
2018-11-20T13:34:40.089Z,101936.03
2018-11-20T13:37:32.004Z,101927.02
2018-11-20T13:40:30.466Z,101934.02
2018-11-20T13:43:18.796Z,101936.61
2018-11-20T13:46:04.963Z,101932.13
2018-11-20T13:48:51.965Z,101927.86
2018-11-20T13:51:42.082Z,101929.98
2018-11-20T13:54:43.630Z,101925.56
2018-11-20T13:57:36.846Z,101920.51
2018-11-20T14:00:39.134Z,101926.98
2018-11-20T14:03:19.234Z,101918.31
2018-11-20T14:06:02.649Z,101921.83
2018-11-20T14:08:49.846Z,101927.39
2018-11-20T14:11:26.631Z,101928.30
2018-11-20T14:14:37.116Z,101920.44
2018-11-20T14:17:46.568Z,101917.14
2018-11-20T14:20:41.826Z,101917.00
2018-11-20T14:23:41.603Z,101921.83
2018-11-20T14:26:30.632Z,101913.52
2018-11-20T14:29:17.857Z,101910.58
2018-11-20T14:31:55.766Z,101910.92
2018-11-20T14:34:42.089Z,101905.38
2018-11-20T14:37:32.784Z,101907.41
2018-11-20T14:40:29.027Z,101908.69
2018-11-20T14:43:14.997Z,101898.57
2018-11-20T14:45:58.625Z,101899.73
2018-11-20T14:48:44.778Z,101911.98
2018-11-20T14:51:31.009Z,101905.98
2018-11-20T14:54:17.945Z,101901.09
2018-11-20T14:57:05.169Z,101902.86
2018-11-20T15:00:04.331Z,101903.44
2018-11-20T15:02:50.433Z,101885.84
2018-11-20T15:05:37.615Z,101892.47
2018-11-20T15:08:31.150Z,101878.69
2018-11-20T15:11:38.419Z,101878.75
2018-11-20T15:14:28.173Z,101873.61
2018-11-20T15:17:21.937Z,101870.91
2018-11-20T15:20:08.436Z,101873.38
2018-11-20T15:22:54.495Z,101880.84
2018-11-20T15:25:40.569Z,101870.27
2018-11-20T15:28:24.608Z,101859.68
2018-11-20T15:31:13.097Z,101859.56
2018-11-20T15:34:09.809Z,101859.86
2018-11-20T15:36:46.708Z,101853.17
2018-11-20T15:39:43.298Z,101846.13
2018-11-20T15:42:33.546Z,101843.05
2018-11-20T15:45:27.150Z,101846.25
2018-11-20T15:48:16.746Z,101839.98
2018-11-20T15:50:55.698Z,101836.67
2018-11-20T15:53:42.235Z,101845.31
2018-11-20T15:56:19.689Z,101840.81
2018-11-20T15:59:06.239Z,101834.16
2018-11-20T16:01:52.231Z,101831.79
2018-11-20T16:04:49.535Z,101824.73
2018-11-20T16:07:31.233Z,101819.19
2018-11-20T16:10:17.309Z,101830.30
2018-11-20T16:13:00.826Z,101827.94
2018-11-20T16:15:47.542Z,101828.48
2018-11-20T16:18:40.360Z,101830.31
2018-11-20T16:21:40.448Z,101823.47
2018-11-20T16:24:26.079Z,101821.75
2018-11-20T16:27:13.835Z,101813.56
2018-11-20T16:30:04.161Z,101808.18
2018-11-20T16:32:49.938Z,101809.55
2018-11-20T16:35:39.194Z,101813.64
2018-11-20T16:38:26.393Z,101822.05
2018-11-20T16:41:19.646Z,101824.45
2018-11-20T16:44:06.077Z,101833.37
2018-11-20T16:46:53.877Z,101843.64
2018-11-20T16:49:47.339Z,101840.13
2018-11-20T16:52:33.561Z,101852.59
2018-11-20T16:55:19.691Z,101847.59
2018-11-20T16:58:07.900Z,101851.33
2018-11-20T17:00:50.702Z,101854.73
2018-11-20T17:03:42.881Z,101854.85
2018-11-20T17:06:30.211Z,101848.58
2018-11-20T17:09:19.358Z,101846.09
2018-11-20T17:12:12.851Z,101842.23
2018-11-20T17:15:18.580Z,101855.31
2018-11-20T17:18:06.270Z,101864.87
2018-11-20T17:20:52.229Z,101857.33
2018-11-20T17:23:42.286Z,101873.24
2018-11-20T17:26:24.394Z,101867.66
2018-11-20T17:29:49.271Z,101868.25
2018-11-20T17:32:42.389Z,101877.23
2018-11-20T17:35:32.257Z,101869.47
2018-11-20T17:38:18.199Z,101879.66
2018-11-20T17:41:11.507Z,101897.66
2018-11-20T17:43:58.349Z,101899.77
2018-11-20T17:46:47.518Z,101907.52
2018-11-20T17:49:33.981Z,101896.80
2018-11-20T17:52:23.574Z,101898.28
2018-11-20T17:55:10.626Z,101906.48
2018-11-20T17:57:57.175Z,101914.20
2018-11-20T18:00:40.758Z,101915.22
2018-11-20T18:03:22.968Z,101916.35
2018-11-20T18:06:08.086Z,101929.53
2018-11-20T18:09:13.275Z,101924.16
2018-11-20T18:12:10.454Z,101922.21
2018-11-20T18:14:58.408Z,101915.06
2018-11-20T18:17:44.613Z,101916.17
2018-11-20T18:20:37.560Z,101911.41
2018-11-20T18:23:23.497Z,101910.01
2018-11-20T18:26:10.475Z,101911.61
2018-11-20T18:28:52.859Z,101900.52
2018-11-20T18:31:52.172Z,101921.30
2018-11-20T18:34:44.121Z,101918.58
2018-11-20T18:37:29.696Z,101900.27
2018-11-20T18:40:19.462Z,101921.80
2018-11-20T18:43:12.091Z,101934.53
2018-11-20T18:45:57.836Z,101936.49
2018-11-20T18:48:50.539Z,101932.87
2018-11-20T18:51:37.319Z,101926.17
2018-11-20T18:54:23.319Z,101935.46
2018-11-20T18:57:01.177Z,101925.89
2018-11-20T18:59:47.427Z,101928.87
2018-11-20T19:02:32.706Z,101926.73
2018-11-20T19:05:13.924Z,101921.57
2018-11-20T19:08:06.102Z,101918.45
2018-11-20T19:10:51.406Z,101916.28
2018-11-20T19:13:41.337Z,101919.02
2018-11-20T19:16:28.972Z,101915.30
2018-11-20T19:19:24.673Z,101917.27
2018-11-20T19:22:26.903Z,101922.21
2018-11-20T19:25:21.494Z,101907.58
2018-11-20T19:28:17.001Z,101914.84
2018-11-20T19:31:11.170Z,101921.55
2018-11-20T19:34:16.113Z,101921.09
2018-11-20T19:37:02.106Z,101917.89
2018-11-20T19:39:56.427Z,101916.20
2018-11-20T19:43:01.227Z,101930.11
2018-11-20T19:45:46.662Z,101932.56
2018-11-20T19:48:31.404Z,101923.46
2018-11-20T19:51:16.655Z,101934.20
2018-11-20T19:54:01.717Z,101933.67
2018-11-20T19:57:06.800Z,101935.47
2018-11-20T20:03:52.313Z,101953.10
2018-11-20T20:06:37.308Z,101948.52
2018-11-20T20:09:26.003Z,101954.77
2018-11-20T20:12:23.629Z,101960.41
2018-11-20T20:15:05.042Z,101948.48
2018-11-20T20:18:04.214Z,101961.85
2018-11-20T20:20:49.708Z,101959.61
2018-11-20T20:23:51.268Z,101960.73
2018-11-20T20:26:32.142Z,101959.57
2018-11-20T20:29:17.258Z,101964.67
2018-11-20T20:32:16.123Z,101964.70
2018-11-20T20:35:01.866Z,101967.59
2018-11-20T20:37:43.513Z,101973.30
2018-11-20T20:40:23.585Z,101982.06
2018-11-20T20:43:20.123Z,101982.47
2018-11-20T20:46:06.698Z,101990.63
2018-11-20T20:49:11.284Z,101991.98
2018-11-20T20:51:56.109Z,101993.28
2018-11-20T20:54:48.434Z,101993.73
2018-11-20T20:57:34.855Z,101988.02
2018-11-20T21:00:39.708Z,101992.34
2018-11-20T21:03:17.586Z,101998.53
2018-11-20T21:06:03.249Z,101995.61
2018-11-20T21:08:52.880Z,101991.59
2018-11-20T21:11:39.512Z,101995.72
2018-11-20T21:14:25.574Z,101997.02
2018-11-20T21:17:11.596Z,101998.38
2018-11-20T21:20:13.193Z,101990.64
2018-11-20T21:22:56.431Z,101993.02
2018-11-20T21:25:49.143Z,101991.48
2018-11-20T21:28:38.394Z,102001.98
2018-11-20T21:31:30.994Z,101998.38
2018-11-20T21:34:12.502Z,102001.07
2018-11-20T21:37:11.453Z,101999.95
2018-11-20T21:40:04.552Z,102001.70
2018-11-20T21:43:09.892Z,102006.59
2018-11-20T21:46:07.123Z,102014.42
2018-11-20T21:48:56.515Z,102010.88
2018-11-20T21:51:43.304Z,102016.98
2018-11-20T21:54:29.769Z,102012.91
2018-11-20T21:57:16.316Z,102010.16
2018-11-20T22:00:02.214Z,102003.45
2018-11-20T22:02:50.762Z,102006.59
2018-11-20T22:05:36.399Z,102007.46
2018-11-20T22:08:41.717Z,102010.88
2018-11-20T22:11:34.524Z,102011.45
2018-11-20T22:14:31.140Z,102011.01
2018-11-20T22:17:20.508Z,102011.35
2018-11-20T22:20:07.601Z,102018.49
2018-11-20T22:22:53.227Z,102025.95
2018-11-20T22:25:45.553Z,102021.78
2018-11-20T22:28:32.644Z,102018.72
2018-11-20T22:31:21.887Z,102020.70
2018-11-20T22:34:07.550Z,102031.73
2018-11-20T22:36:53.226Z,102024.63
2018-11-20T22:39:55.245Z,102038.80
2018-11-20T22:42:46.689Z,102034.73
2018-11-20T22:45:27.291Z,102037.38
2018-11-20T22:48:12.142Z,102049.87
2018-11-20T22:50:57.407Z,102047.48
2018-11-20T22:53:43.022Z,102041.67
2018-11-20T22:56:26.337Z,102042.81
2018-11-20T22:59:18.570Z,102042.18
2018-11-20T23:02:07.935Z,102034.28
2018-11-20T23:04:59.718Z,102037.08
2018-11-20T23:07:44.653Z,102045.67
2018-11-20T23:10:13.384Z,102044.88
2018-11-20T23:12:40.519Z,102036.81
2018-11-20T23:15:10.886Z,102042.35
2018-11-20T23:17:37.924Z,102049.44
2018-11-20T23:20:05.521Z,102043.95
2018-11-20T23:22:34.031Z,102047.09
2018-11-20T23:25:01.192Z,102047.39
2018-11-20T23:27:28.967Z,102053.27
2018-11-20T23:29:55.839Z,102057.49
2018-11-20T23:32:22.849Z,102055.33
2018-11-20T23:34:50.055Z,102058.46
2018-11-20T23:37:17.397Z,102055.99
2018-11-20T23:39:45.000Z,102055.02
2018-11-20T23:42:12.561Z,102055.89
2018-11-20T23:44:39.420Z,102052.31
2018-11-20T23:47:07.765Z,102048.23
2018-11-20T23:49:34.887Z,102052.31
2018-11-20T23:52:01.934Z,102048.48
2018-11-20T23:54:29.341Z,102058.87
2018-11-20T23:56:56.209Z,102057.67
2018-11-20T23:59:23.759Z,102045.83
